VOZ1498 YBHM-YBBN
Flight info
| Callsign | VOZ1498 |
|---|---|
| Flight time | 1h 11m |
| Altitude | 19000 |
| Route | OVRON B462 MK V153 MUNAR/N0441F390 Y61 RUROX Y177 SMOKA |
| Aircraft | B737/M-SDE2E3FGHIRWXY/LB1 |
Departure
| Time | 2026-05-07 20:16 |
|---|---|
| Airport | Hamilton Island Airport (YBHM) |
Arrival
| Time | 2026-05-07 21:27 |
|---|---|
| Airport | Brisbane International Airport (YBBN) |
| Time | Latitude | Longitude | Altitude | Speed | Heading |
|---|---|---|---|---|---|
| 2026-05-07 19:53 | -20.35220 | 148.94895 | 21 ft | 0 kts | 310° |
| 2026-05-07 20:12 | -20.35217 | 148.94888 | 19 ft | 2 kts | 289° |
| 2026-05-07 20:12 | -20.35221 | 148.94872 | 19 ft | 3 kts | 250° |
| 2026-05-07 20:12 | -20.35236 | 148.94847 | 19 ft | 5 kts | 235° |
| 2026-05-07 20:13 | -20.35257 | 148.94815 | 19 ft | 6 kts | 238° |
| 2026-05-07 20:13 | -20.35252 | 148.94773 | 19 ft | 7 kts | 305° |
| 2026-05-07 20:13 | -20.35214 | 148.94737 | 19 ft | 8 kts | 321° |
| 2026-05-07 20:13 | -20.35161 | 148.94694 | 20 ft | 10 kts | 330° |
| 2026-05-07 20:14 | -20.35089 | 148.94689 | 18 ft | 8 kts | 335° |
| 2026-05-07 20:14 | -20.35085 | 148.94655 | 19 ft | 5 kts | 232° |
| 2026-05-07 20:14 | -20.35119 | 148.94662 | 18 ft | 6 kts | 142° |
| 2026-05-07 20:14 | -20.35127 | 148.94668 | 18 ft | 0 kts | 142° |
| 2026-05-07 20:15 | -20.35327 | 148.94829 | 20 ft | 80 kts | 143° |
| 2026-05-07 20:15 | -20.35978 | 148.95329 | 157 ft | 139 kts | 146° |
| 2026-05-07 20:16 | -20.36832 | 148.95945 | 975 ft | 156 kts | 148° |
| 2026-05-07 20:16 | -20.37790 | 148.96590 | 1886 ft | 168 kts | 155° |
| 2026-05-07 20:16 | -20.38992 | 148.96914 | 2703 ft | 192 kts | 166° |
| 2026-05-07 20:16 | -20.40420 | 148.97212 | 3027 ft | 231 kts | 165° |
| 2026-05-07 20:17 | -20.42075 | 148.97587 | 3848 ft | 249 kts | 163° |
| 2026-05-07 20:17 | -20.43824 | 148.98004 | 4906 ft | 260 kts | 163° |
| 2026-05-07 20:17 | -20.45585 | 148.98443 | 5986 ft | 268 kts | 163° |
| 2026-05-07 20:17 | -20.47443 | 148.98923 | 7105 ft | 272 kts | 163° |
| 2026-05-07 20:18 | -20.49291 | 148.99414 | 8037 ft | 283 kts | 164° |
| 2026-05-07 20:18 | -20.51252 | 148.99946 | 9024 ft | 291 kts | 166° |
| 2026-05-07 20:18 | -20.53219 | 149.00485 | 9981 ft | 300 kts | 167° |
| 2026-05-07 20:18 | -20.55284 | 149.01056 | 10658 ft | 318 kts | 169° |
| 2026-05-07 20:19 | -20.57490 | 149.01667 | 11235 ft | 335 kts | 169° |
| 2026-05-07 20:19 | -20.59772 | 149.02307 | 12158 ft | 338 kts | 169° |
| 2026-05-07 20:19 | -20.62059 | 149.02957 | 13117 ft | 344 kts | 169° |
| 2026-05-07 20:19 | -20.64404 | 149.03620 | 13929 ft | 352 kts | 169° |
| 2026-05-07 20:20 | -20.66796 | 149.04298 | 14725 ft | 358 kts | 169° |
| 2026-05-07 20:20 | -20.69219 | 149.04986 | 15548 ft | 362 kts | 169° |
| 2026-05-07 20:20 | -20.71677 | 149.05684 | 16342 ft | 368 kts | 169° |
| 2026-05-07 20:20 | -20.74172 | 149.06393 | 17137 ft | 373 kts | 169° |
| 2026-05-07 20:21 | -20.76699 | 149.07112 | 17936 ft | 378 kts | 169° |
| 2026-05-07 20:21 | -20.79259 | 149.07840 | 18665 ft | 384 kts | 169° |
| 2026-05-07 20:21 | -20.81858 | 149.08580 | 19338 ft | 389 kts | 169° |
| 2026-05-07 20:21 | -20.84454 | 149.09319 | 19998 ft | 394 kts | 169° |
| 2026-05-07 20:22 | -20.87117 | 149.10077 | 20676 ft | 399 kts | 169° |
| 2026-05-07 20:22 | -20.89823 | 149.10848 | 21336 ft | 404 kts | 170° |
| 2026-05-07 20:22 | -20.92559 | 149.11628 | 22004 ft | 409 kts | 170° |
| 2026-05-07 20:22 | -20.95326 | 149.12417 | 22661 ft | 414 kts | 170° |
| 2026-05-07 20:23 | -20.98129 | 149.13217 | 23317 ft | 419 kts | 170° |
| 2026-05-07 20:23 | -21.00981 | 149.14030 | 23833 ft | 427 kts | 171° |
| 2026-05-07 20:23 | -21.03867 | 149.14854 | 24376 ft | 431 kts | 171° |
| 2026-05-07 20:23 | -21.06775 | 149.15686 | 24976 ft | 434 kts | 171° |
| 2026-05-07 20:24 | -21.09703 | 149.16524 | 25555 ft | 437 kts | 171° |
| 2026-05-07 20:24 | -21.12646 | 149.17366 | 26102 ft | 441 kts | 171° |
| 2026-05-07 20:24 | -21.15640 | 149.18221 | 26639 ft | 445 kts | 172° |
| 2026-05-07 20:24 | -21.18646 | 149.19086 | 27171 ft | 449 kts | 171° |
| 2026-05-07 20:25 | -21.21673 | 149.19980 | 27692 ft | 454 kts | 171° |
| 2026-05-07 20:25 | -21.24732 | 149.20898 | 28210 ft | 457 kts | 171° |
| 2026-05-07 20:25 | -21.27811 | 149.21825 | 28717 ft | 461 kts | 171° |
| 2026-05-07 20:25 | -21.30914 | 149.22759 | 29248 ft | 465 kts | 172° |
| 2026-05-07 20:26 | -21.34000 | 149.23687 | 29736 ft | 469 kts | 172° |
| 2026-05-07 20:26 | -21.37153 | 149.24632 | 30210 ft | 472 kts | 172° |
| 2026-05-07 20:26 | -21.40330 | 149.25584 | 30608 ft | 476 kts | 172° |
| 2026-05-07 20:26 | -21.43530 | 149.26545 | 30985 ft | 480 kts | 172° |
| 2026-05-07 20:27 | -21.46761 | 149.27514 | 31356 ft | 484 kts | 172° |
| 2026-05-07 20:27 | -21.50010 | 149.28504 | 31715 ft | 489 kts | 170° |
| 2026-05-07 20:27 | -21.53256 | 149.29707 | 32073 ft | 496 kts | 167° |
| 2026-05-07 20:27 | -21.56493 | 149.31045 | 32426 ft | 501 kts | 166° |
| 2026-05-07 20:28 | -21.59741 | 149.32449 | 32755 ft | 505 kts | 165° |
| 2026-05-07 20:28 | -21.63003 | 149.33874 | 33073 ft | 508 kts | 165° |
| 2026-05-07 20:28 | -21.66289 | 149.35304 | 33412 ft | 511 kts | 165° |
| 2026-05-07 20:28 | -21.69587 | 149.36724 | 33835 ft | 510 kts | 166° |
| 2026-05-07 20:29 | -21.72886 | 149.38131 | 34261 ft | 509 kts | 166° |
| 2026-05-07 20:29 | -21.76185 | 149.39528 | 34640 ft | 509 kts | 166° |
| 2026-05-07 20:29 | -21.79485 | 149.40918 | 34979 ft | 509 kts | 166° |
| 2026-05-07 20:29 | -21.82787 | 149.42306 | 35287 ft | 510 kts | 166° |
| 2026-05-07 20:30 | -21.86094 | 149.43696 | 35607 ft | 510 kts | 167° |
| 2026-05-07 20:30 | -21.89402 | 149.45088 | 35968 ft | 510 kts | 167° |
| 2026-05-07 20:30 | -21.92709 | 149.46480 | 36267 ft | 511 kts | 167° |
| 2026-05-07 20:30 | -21.96021 | 149.47877 | 36580 ft | 511 kts | 167° |
| 2026-05-07 20:31 | -21.99330 | 149.49274 | 36894 ft | 511 kts | 167° |
| 2026-05-07 20:31 | -22.02636 | 149.50671 | 37208 ft | 511 kts | 167° |
| 2026-05-07 20:31 | -22.05945 | 149.52070 | 37509 ft | 511 kts | 167° |
| 2026-05-07 20:31 | -22.09253 | 149.53469 | 37805 ft | 511 kts | 167° |
| 2026-05-07 20:32 | -22.12520 | 149.54851 | 38086 ft | 511 kts | 167° |
| 2026-05-07 20:32 | -22.15839 | 149.56255 | 38346 ft | 512 kts | 167° |
| 2026-05-07 20:32 | -22.19160 | 149.57661 | 38597 ft | 513 kts | 167° |
| 2026-05-07 20:32 | -22.22481 | 149.59067 | 38872 ft | 513 kts | 168° |
| 2026-05-07 20:33 | -22.25814 | 149.60480 | 39084 ft | 513 kts | 168° |
| 2026-05-07 20:33 | -22.32468 | 149.63303 | 39150 ft | 513 kts | 168° |
| 2026-05-07 20:34 | -22.39093 | 149.66120 | 39157 ft | 510 kts | 168° |
| 2026-05-07 20:34 | -22.45685 | 149.68924 | 39154 ft | 508 kts | 168° |
| 2026-05-07 20:35 | -22.52251 | 149.71718 | 39192 ft | 506 kts | 168° |
| 2026-05-07 20:35 | -22.58807 | 149.74508 | 39169 ft | 506 kts | 168° |
| 2026-05-07 20:36 | -22.65327 | 149.77287 | 39161 ft | 506 kts | 168° |
| 2026-05-07 20:36 | -22.71879 | 149.80083 | 39163 ft | 506 kts | 168° |
| 2026-05-07 20:37 | -22.78446 | 149.82888 | 39170 ft | 507 kts | 168° |
| 2026-05-07 20:37 | -22.85025 | 149.85701 | 39181 ft | 509 kts | 168° |
| 2026-05-07 20:38 | -22.91637 | 149.88530 | 39181 ft | 511 kts | 168° |
| 2026-05-07 20:38 | -22.98227 | 149.91354 | 39169 ft | 513 kts | 168° |
| 2026-05-07 20:39 | -23.04865 | 149.94213 | 39180 ft | 513 kts | 168° |
| 2026-05-07 20:39 | -23.11519 | 149.97067 | 39168 ft | 514 kts | 168° |
| 2026-05-07 20:40 | -23.18184 | 149.99929 | 39178 ft | 515 kts | 168° |
| 2026-05-07 20:40 | -23.24858 | 150.02802 | 39185 ft | 515 kts | 168° |
| 2026-05-07 20:41 | -23.31525 | 150.05675 | 39179 ft | 515 kts | 168° |
| 2026-05-07 20:41 | -23.38144 | 150.08532 | 39176 ft | 515 kts | 168° |
| 2026-05-07 20:42 | -23.44797 | 150.11406 | 39199 ft | 514 kts | 168° |
| 2026-05-07 20:42 | -23.51461 | 150.14286 | 39192 ft | 515 kts | 168° |
| 2026-05-07 20:43 | -23.58125 | 150.17170 | 39182 ft | 514 kts | 168° |
| 2026-05-07 20:43 | -23.64773 | 150.20051 | 39190 ft | 514 kts | 168° |
| 2026-05-07 20:44 | -23.71420 | 150.22934 | 39182 ft | 513 kts | 168° |
| 2026-05-07 20:44 | -23.78050 | 150.25813 | 39203 ft | 513 kts | 168° |
| 2026-05-07 20:45 | -23.83560 | 150.28207 | 39201 ft | 512 kts | 168° |
| 2026-05-07 20:45 | -23.91264 | 150.31560 | 39195 ft | 512 kts | 168° |
| 2026-05-07 20:46 | -23.97887 | 150.34445 | 39197 ft | 512 kts | 168° |
| 2026-05-07 20:46 | -24.03381 | 150.36841 | 39207 ft | 511 kts | 168° |
| 2026-05-07 20:47 | -24.09996 | 150.39728 | 39216 ft | 512 kts | 169° |
| 2026-05-07 20:47 | -24.16614 | 150.42621 | 39206 ft | 512 kts | 168° |
| 2026-05-07 20:48 | -24.23236 | 150.45518 | 39214 ft | 511 kts | 169° |
| 2026-05-07 20:48 | -24.29848 | 150.48415 | 39212 ft | 511 kts | 169° |
| 2026-05-07 20:49 | -24.36416 | 150.51295 | 39262 ft | 511 kts | 169° |
| 2026-05-07 20:49 | -24.43031 | 150.54199 | 39221 ft | 512 kts | 169° |
| 2026-05-07 20:50 | -24.49627 | 150.57202 | 39222 ft | 519 kts | 162° |
| 2026-05-07 20:50 | -24.55849 | 150.61452 | 39231 ft | 529 kts | 154° |
| 2026-05-07 20:51 | -24.61935 | 150.66031 | 39227 ft | 530 kts | 154° |
| 2026-05-07 20:51 | -24.68026 | 150.70583 | 39229 ft | 529 kts | 154° |
| 2026-05-07 20:52 | -24.74104 | 150.75052 | 39244 ft | 528 kts | 154° |
| 2026-05-07 20:52 | -24.80221 | 150.79525 | 39232 ft | 527 kts | 155° |
| 2026-05-07 20:53 | -24.86325 | 150.83993 | 39231 ft | 526 kts | 155° |
| 2026-05-07 20:53 | -24.92424 | 150.88469 | 39235 ft | 526 kts | 155° |
| 2026-05-07 20:54 | -24.98515 | 150.92947 | 39250 ft | 526 kts | 155° |
| 2026-05-07 20:54 | -25.04609 | 150.97432 | 39234 ft | 527 kts | 154° |
| 2026-05-07 20:55 | -25.10694 | 151.01917 | 39236 ft | 526 kts | 154° |
| 2026-05-07 20:55 | -25.16784 | 151.06411 | 39225 ft | 526 kts | 155° |
| 2026-05-07 20:56 | -25.22821 | 151.10870 | 39228 ft | 525 kts | 154° |
| 2026-05-07 20:56 | -25.28885 | 151.15356 | 39233 ft | 524 kts | 154° |
| 2026-05-07 20:57 | -25.34951 | 151.19847 | 39246 ft | 525 kts | 154° |
| 2026-05-07 20:57 | -25.41030 | 151.24354 | 39234 ft | 524 kts | 154° |
| 2026-05-07 20:58 | -25.47049 | 151.28823 | 39228 ft | 524 kts | 154° |
| 2026-05-07 20:58 | -25.53097 | 151.33319 | 39231 ft | 523 kts | 154° |
| 2026-05-07 20:59 | -25.59137 | 151.37814 | 39225 ft | 522 kts | 154° |
| 2026-05-07 20:59 | -25.65168 | 151.42308 | 39251 ft | 522 kts | 154° |
| 2026-05-07 21:00 | -25.71166 | 151.46782 | 39222 ft | 522 kts | 154° |
| 2026-05-07 21:00 | -25.77059 | 151.51562 | 39123 ft | 531 kts | 147° |
| 2026-05-07 21:00 | -25.79866 | 151.54282 | 38564 ft | 536 kts | 144° |
| 2026-05-07 21:01 | -25.82623 | 151.57079 | 37948 ft | 536 kts | 144° |
| 2026-05-07 21:01 | -25.85357 | 151.59893 | 37338 ft | 535 kts | 144° |
| 2026-05-07 21:01 | -25.88086 | 151.62690 | 36740 ft | 533 kts | 144° |
| 2026-05-07 21:01 | -25.90825 | 151.65467 | 36134 ft | 532 kts | 145° |
| 2026-05-07 21:02 | -25.93573 | 151.68225 | 35451 ft | 533 kts | 145° |
| 2026-05-07 21:02 | -25.96338 | 151.70979 | 34717 ft | 535 kts | 146° |
| 2026-05-07 21:02 | -25.99080 | 151.73700 | 34025 ft | 536 kts | 146° |
| 2026-05-07 21:02 | -26.01844 | 151.76446 | 33450 ft | 531 kts | 146° |
| 2026-05-07 21:03 | -26.04587 | 151.79176 | 32882 ft | 527 kts | 145° |
| 2026-05-07 21:03 | -26.07295 | 151.81877 | 32345 ft | 521 kts | 145° |
| 2026-05-07 21:03 | -26.09985 | 151.84561 | 31829 ft | 516 kts | 145° |
| 2026-05-07 21:03 | -26.12644 | 151.87216 | 31320 ft | 511 kts | 145° |
| 2026-05-07 21:04 | -26.15280 | 151.89849 | 30827 ft | 506 kts | 145° |
| 2026-05-07 21:04 | -26.17879 | 151.92447 | 30317 ft | 499 kts | 145° |
| 2026-05-07 21:04 | -26.20440 | 151.95012 | 29733 ft | 490 kts | 144° |
| 2026-05-07 21:04 | -26.22949 | 151.97525 | 29179 ft | 481 kts | 144° |
| 2026-05-07 21:05 | -26.25407 | 151.99989 | 28677 ft | 471 kts | 145° |
| 2026-05-07 21:05 | -26.27828 | 152.02414 | 28148 ft | 464 kts | 145° |
| 2026-05-07 21:05 | -26.30219 | 152.04808 | 27646 ft | 460 kts | 144° |
| 2026-05-07 21:05 | -26.32562 | 152.07153 | 27172 ft | 456 kts | 144° |
| 2026-05-07 21:06 | -26.34944 | 152.09540 | 26659 ft | 453 kts | 144° |
| 2026-05-07 21:06 | -26.37278 | 152.11882 | 26158 ft | 450 kts | 144° |
| 2026-05-07 21:06 | -26.39567 | 152.14181 | 25664 ft | 447 kts | 144° |
| 2026-05-07 21:06 | -26.41873 | 152.16497 | 25149 ft | 445 kts | 144° |
| 2026-05-07 21:07 | -26.44169 | 152.18805 | 24630 ft | 442 kts | 144° |
| 2026-05-07 21:07 | -26.46452 | 152.21102 | 24114 ft | 440 kts | 143° |
| 2026-05-07 21:07 | -26.48720 | 152.23387 | 23569 ft | 438 kts | 143° |
| 2026-05-07 21:07 | -26.50973 | 152.25660 | 22992 ft | 434 kts | 143° |
| 2026-05-07 21:08 | -26.53201 | 152.27908 | 22457 ft | 429 kts | 143° |
| 2026-05-07 21:08 | -26.55397 | 152.30127 | 21952 ft | 424 kts | 143° |
| 2026-05-07 21:08 | -26.57577 | 152.32316 | 21444 ft | 419 kts | 142° |
| 2026-05-07 21:08 | -26.59727 | 152.34490 | 20936 ft | 415 kts | 142° |
| 2026-05-07 21:09 | -26.61856 | 152.36642 | 20423 ft | 410 kts | 142° |
| 2026-05-07 21:09 | -26.63941 | 152.38744 | 19936 ft | 406 kts | 141° |
| 2026-05-07 21:09 | -26.66019 | 152.40873 | 19431 ft | 402 kts | 141° |
| 2026-05-07 21:09 | -26.68068 | 152.42988 | 18930 ft | 399 kts | 140° |
| 2026-05-07 21:10 | -26.70093 | 152.45085 | 18393 ft | 395 kts | 140° |
| 2026-05-07 21:10 | -26.72105 | 152.47167 | 17823 ft | 389 kts | 140° |
| 2026-05-07 21:10 | -26.74068 | 152.49199 | 17286 ft | 377 kts | 140° |
| 2026-05-07 21:10 | -26.75965 | 152.51163 | 16770 ft | 366 kts | 140° |
| 2026-05-07 21:11 | -26.77805 | 152.53066 | 16294 ft | 355 kts | 140° |
| 2026-05-07 21:11 | -26.79594 | 152.54916 | 15829 ft | 345 kts | 140° |
| 2026-05-07 21:11 | -26.83054 | 152.58492 | 14939 ft | 335 kts | 140° |
| 2026-05-07 21:12 | -26.84762 | 152.60259 | 14498 ft | 333 kts | 140° |
| 2026-05-07 21:12 | -26.86458 | 152.62015 | 14046 ft | 331 kts | 140° |
| 2026-05-07 21:12 | -26.88129 | 152.63746 | 13569 ft | 329 kts | 140° |
| 2026-05-07 21:12 | -26.89791 | 152.65469 | 13169 ft | 323 kts | 140° |
| 2026-05-07 21:13 | -26.91436 | 152.67175 | 12686 ft | 321 kts | 140° |
| 2026-05-07 21:13 | -26.93068 | 152.68869 | 12228 ft | 319 kts | 140° |
| 2026-05-07 21:13 | -26.94684 | 152.70547 | 11844 ft | 314 kts | 140° |
| 2026-05-07 21:13 | -26.96268 | 152.72193 | 11607 ft | 308 kts | 140° |
| 2026-05-07 21:14 | -26.97842 | 152.73814 | 11366 ft | 307 kts | 140° |
| 2026-05-07 21:14 | -26.99407 | 152.75446 | 11123 ft | 308 kts | 135° |
| 2026-05-07 21:14 | -27.00536 | 152.77502 | 10880 ft | 313 kts | 116° |
| 2026-05-07 21:14 | -27.01376 | 152.79760 | 10659 ft | 315 kts | 114° |
| 2026-05-07 21:15 | -27.02197 | 152.82039 | 10422 ft | 315 kts | 114° |
| 2026-05-07 21:15 | -27.03010 | 152.84292 | 10199 ft | 316 kts | 115° |
| 2026-05-07 21:15 | -27.03844 | 152.86575 | 9961 ft | 316 kts | 115° |
| 2026-05-07 21:15 | -27.04676 | 152.88830 | 9686 ft | 308 kts | 115° |
| 2026-05-07 21:16 | -27.05487 | 152.91017 | 9420 ft | 300 kts | 115° |
| 2026-05-07 21:16 | -27.06278 | 152.93147 | 9159 ft | 292 kts | 115° |
| 2026-05-07 21:16 | -27.07040 | 152.95196 | 8893 ft | 285 kts | 115° |
| 2026-05-07 21:16 | -27.07689 | 152.97284 | 8555 ft | 283 kts | 107° |
| 2026-05-07 21:17 | -27.08131 | 152.99435 | 8196 ft | 282 kts | 104° |
| 2026-05-07 21:17 | -27.08533 | 153.01582 | 7830 ft | 280 kts | 104° |
| 2026-05-07 21:17 | -27.08943 | 153.03713 | 7483 ft | 279 kts | 105° |
| 2026-05-07 21:17 | -27.09368 | 153.05835 | 7118 ft | 278 kts | 105° |
| 2026-05-07 21:18 | -27.09798 | 153.07946 | 6762 ft | 277 kts | 105° |
| 2026-05-07 21:18 | -27.10230 | 153.10047 | 6392 ft | 276 kts | 105° |
| 2026-05-07 21:18 | -27.10642 | 153.12139 | 6013 ft | 274 kts | 101° |
| 2026-05-07 21:18 | -27.10779 | 153.14271 | 5660 ft | 273 kts | 93° |
| 2026-05-07 21:19 | -27.10807 | 153.16388 | 5424 ft | 266 kts | 93° |
| 2026-05-07 21:19 | -27.10837 | 153.18402 | 5302 ft | 256 kts | 94° |
| 2026-05-07 21:19 | -27.11025 | 153.20333 | 5187 ft | 243 kts | 107° |
| 2026-05-07 21:19 | -27.11479 | 153.22113 | 5083 ft | 232 kts | 110° |
| 2026-05-07 21:20 | -27.12190 | 153.23662 | 4966 ft | 217 kts | 136° |
| 2026-05-07 21:20 | -27.13361 | 153.24621 | 4908 ft | 203 kts | 157° |
| 2026-05-07 21:20 | -27.14662 | 153.25147 | 4744 ft | 197 kts | 162° |
| 2026-05-07 21:20 | -27.15972 | 153.25453 | 4572 ft | 189 kts | 188° |
| 2026-05-07 21:21 | -27.17152 | 153.24964 | 4442 ft | 178 kts | 202° |
| 2026-05-07 21:21 | -27.18263 | 153.24411 | 4227 ft | 171 kts | 203° |
| 2026-05-07 21:21 | -27.19315 | 153.23845 | 4017 ft | 164 kts | 203° |
| 2026-05-07 21:21 | -27.20323 | 153.23281 | 3790 ft | 158 kts | 204° |
| 2026-05-07 21:22 | -27.21284 | 153.22734 | 3590 ft | 151 kts | 203° |
| 2026-05-07 21:22 | -27.22196 | 153.22211 | 3395 ft | 144 kts | 204° |
| 2026-05-07 21:22 | -27.23065 | 153.21712 | 3188 ft | 136 kts | 203° |
| 2026-05-07 21:22 | -27.23909 | 153.21227 | 3062 ft | 135 kts | 203° |
| 2026-05-07 21:23 | -27.24732 | 153.20753 | 2863 ft | 129 kts | 202° |
| 2026-05-07 21:23 | -27.25520 | 153.20300 | 2675 ft | 129 kts | 202° |
| 2026-05-07 21:23 | -27.26311 | 153.19846 | 2506 ft | 127 kts | 202° |
| 2026-05-07 21:23 | -27.27107 | 153.19389 | 2346 ft | 129 kts | 203° |
| 2026-05-07 21:24 | -27.27894 | 153.18935 | 2156 ft | 126 kts | 203° |
| 2026-05-07 21:24 | -27.28682 | 153.18483 | 2000 ft | 127 kts | 204° |
| 2026-05-07 21:24 | -27.29458 | 153.18035 | 1816 ft | 123 kts | 203° |
| 2026-05-07 21:24 | -27.30231 | 153.17592 | 1646 ft | 125 kts | 204° |
| 2026-05-07 21:25 | -27.31001 | 153.17149 | 1476 ft | 125 kts | 204° |
| 2026-05-07 21:25 | -27.31769 | 153.16707 | 1306 ft | 123 kts | 205° |
| 2026-05-07 21:25 | -27.32523 | 153.16273 | 1152 ft | 120 kts | 205° |
| 2026-05-07 21:25 | -27.33266 | 153.15846 | 977 ft | 119 kts | 206° |
| 2026-05-07 21:26 | -27.34015 | 153.15416 | 818 ft | 121 kts | 208° |
| 2026-05-07 21:26 | -27.34763 | 153.14987 | 642 ft | 124 kts | 205° |
| 2026-05-07 21:26 | -27.35534 | 153.14542 | 487 ft | 123 kts | 210° |
| 2026-05-07 21:26 | -27.36295 | 153.14102 | 309 ft | 123 kts | 207° |
| 2026-05-07 21:27 | -27.37049 | 153.13672 | 159 ft | 121 kts | 208° |
| 2026-05-07 21:27 | -27.37796 | 153.13245 | 29 ft | 117 kts | 208° |
| 2026-05-07 21:27 | -27.38429 | 153.12878 | 23 ft | 82 kts | 207° |
| 2026-05-07 21:27 | -27.38791 | 153.12672 | 21 ft | 34 kts | 207° |
| 2026-05-07 21:28 | -27.38961 | 153.12520 | 20 ft | 25 kts | 226° |
| 2026-05-07 21:28 | -27.39020 | 153.12431 | 20 ft | 13 kts | 235° |
| 2026-05-07 21:28 | -27.39068 | 153.12350 | 20 ft | 12 kts | 238° |
| 2026-05-07 21:28 | -27.39113 | 153.12272 | 20 ft | 12 kts | 237° |
| 2026-05-07 21:29 | -27.39134 | 153.12188 | 20 ft | 12 kts | 285° |
| 2026-05-07 21:29 | -27.39077 | 153.12129 | 20 ft | 11 kts | 329° |
| 2026-05-07 21:29 | -27.39023 | 153.12068 | 20 ft | 11 kts | 297° |
| 2026-05-07 21:29 | -27.38982 | 153.12003 | 20 ft | 10 kts | 329° |
| 2026-05-07 21:30 | -27.38923 | 153.12026 | 20 ft | 10 kts | 49° |
| 2026-05-07 21:30 | -27.38890 | 153.12071 | 21 ft | 6 kts | 52° |
| 2026-05-07 21:30 | -27.38861 | 153.12108 | 22 ft | 6 kts | 34° |
| 2026-05-07 21:30 | -27.38819 | 153.12111 | 20 ft | 6 kts | 335° |
| 2026-05-07 21:31 | -27.38783 | 153.12084 | 21 ft | 6 kts | 335° |
| 2026-05-07 21:31 | -27.38741 | 153.12075 | 20 ft | 6 kts | 347° |
| 2026-05-07 21:31 | -27.38710 | 153.12045 | 21 ft | 6 kts | 308° |
| 2026-05-07 21:31 | -27.38692 | 153.12018 | 20 ft | 2 kts | 307° |
| 2026-05-07 21:32 | -27.38689 | 153.12013 | 20 ft | 1 kts | 307° |
| 2026-05-07 21:32 | -27.38688 | 153.12012 | 20 ft | 0 kts | 307° |